createdAt,value
2018-10-12T00:02:13.478Z,12.40
2018-10-12T00:04:43.187Z,13.23
2018-10-12T00:07:12.896Z,12.47
2018-10-12T00:09:43.661Z,13.00
2018-10-12T00:12:13.415Z,12.33
2018-10-12T00:14:43.127Z,12.97
2018-10-12T00:17:12.764Z,13.07
2018-10-12T00:19:42.430Z,12.33
2018-10-12T00:22:12.093Z,12.60
2018-10-12T00:24:43.356Z,12.70
2018-10-12T00:27:13.022Z,13.07
2018-10-12T00:29:42.643Z,13.80
2018-10-12T00:32:12.441Z,12.73
2018-10-12T00:34:42.167Z,12.90
2018-10-12T00:37:11.882Z,11.67
2018-10-12T00:39:43.068Z,13.00
2018-10-12T00:42:12.832Z,13.23
2018-10-12T00:44:42.522Z,13.47
2018-10-12T00:47:12.316Z,13.07
2018-10-12T00:49:41.963Z,12.97
2018-10-12T00:52:11.673Z,13.07
2018-10-12T00:54:42.734Z,12.93
2018-10-12T00:57:12.474Z,12.07
2018-10-12T00:59:42.135Z,12.83
2018-10-12T01:02:12.229Z,12.97
2018-10-12T01:04:42.156Z,13.67
2018-10-12T01:07:11.775Z,13.60
2018-10-12T01:09:42.727Z,12.47
2018-10-12T01:12:26.573Z,13.50
2018-10-12T01:14:56.231Z,12.13
2018-10-12T01:17:25.764Z,13.17
2018-10-12T01:19:55.854Z,12.47
2018-10-12T01:22:26.355Z,12.67
2018-10-12T01:24:56.984Z,12.97
2018-10-12T01:27:27.397Z,13.20
2018-10-12T01:29:57.392Z,12.77
2018-10-12T01:32:32.294Z,12.93
2018-10-12T01:35:07.976Z,12.23
2018-10-12T01:37:37.763Z,12.90
2018-10-12T01:40:07.636Z,12.90
2018-10-12T01:42:37.362Z,12.20
2018-10-12T01:45:07.150Z,12.40
2018-10-12T01:47:36.803Z,12.17
2018-10-12T01:50:06.540Z,13.40
2018-10-12T01:52:36.264Z,13.53
2018-10-12T01:55:05.965Z,12.33
2018-10-12T01:57:35.737Z,12.50
2018-10-12T02:00:05.863Z,13.33
2018-10-12T02:02:35.580Z,12.20
2018-10-12T02:05:05.462Z,12.63
2018-10-12T02:07:35.088Z,13.00
2018-10-12T02:10:04.968Z,12.40
2018-10-12T02:12:34.624Z,12.50
2018-10-12T02:15:05.082Z,12.20
2018-10-12T02:17:34.795Z,12.33
2018-10-12T02:20:04.514Z,12.50
2018-10-12T02:22:34.490Z,12.13
2018-10-12T02:25:05.176Z,12.27
2018-10-12T02:27:34.918Z,12.90
2018-10-12T02:30:05.728Z,12.23
2018-10-12T02:32:35.461Z,12.30
2018-10-12T02:35:05.635Z,12.93
2018-10-12T02:37:35.307Z,12.43
2018-10-12T02:40:05.136Z,12.70
2018-10-12T02:42:34.774Z,13.27
2018-10-12T02:45:05.411Z,12.97
2018-10-12T02:47:35.074Z,13.03
2018-10-12T02:50:06.171Z,12.70
2018-10-12T02:52:35.919Z,12.77
2018-10-12T02:55:06.436Z,12.97
2018-10-12T02:57:36.136Z,12.53
2018-10-12T03:00:06.141Z,13.33
2018-10-12T03:02:35.835Z,12.10
2018-10-12T03:05:06.782Z,13.07
2018-10-12T03:07:36.808Z,12.83
2018-10-12T03:10:06.593Z,12.07
2018-10-12T03:12:36.248Z,12.27
2018-10-12T03:15:06.726Z,13.53
2018-10-12T03:17:36.396Z,12.67
2018-10-12T03:20:06.530Z,12.37
2018-10-12T03:22:36.216Z,11.13
2018-10-12T03:25:06.886Z,12.93
2018-10-12T03:27:53.381Z,12.70
2018-10-12T03:30:23.139Z,12.43
2018-10-12T03:32:52.857Z,12.67
2018-10-12T03:35:22.730Z,11.63
2018-10-12T03:37:52.490Z,12.03
2018-10-12T03:40:22.300Z,12.60
2018-10-12T03:42:52.102Z,12.57
2018-10-12T03:45:21.765Z,12.10
2018-10-12T03:47:51.448Z,12.33
2018-10-12T03:50:22.672Z,12.97
2018-10-12T03:52:52.510Z,12.57
2018-10-12T03:55:22.193Z,12.60
2018-10-12T03:57:51.924Z,12.23
2018-10-12T04:00:21.574Z,12.27
2018-10-12T04:03:01.100Z,12.90
2018-10-12T04:05:35.825Z,11.90
2018-10-12T04:08:05.962Z,12.47
2018-10-12T04:10:35.961Z,12.73
2018-10-12T04:13:05.910Z,12.87
2018-10-12T04:15:35.669Z,12.20
2018-10-12T04:18:06.534Z,13.07
2018-10-12T04:20:36.275Z,12.43
2018-10-12T04:23:06.169Z,12.87
2018-10-12T04:25:35.867Z,13.57
2018-10-12T04:28:07.136Z,13.37
2018-10-12T04:30:36.403Z,12.70
2018-10-12T04:33:06.231Z,13.33
2018-10-12T04:35:35.553Z,13.43
2018-10-12T04:38:05.574Z,12.47
2018-10-12T04:41:16.060Z,12.33
2018-10-12T04:43:46.451Z,12.30
2018-10-12T04:46:19.157Z,14.20
2018-10-12T04:48:49.751Z,12.37
2018-10-12T04:51:26.420Z,13.07
2018-10-12T04:53:55.801Z,13.07
2018-10-12T04:56:25.175Z,13.30
2018-10-12T04:58:54.668Z,13.50
2018-10-12T05:01:24.022Z,12.73
2018-10-12T05:03:53.364Z,13.57
2018-10-12T05:06:22.732Z,14.03
2018-10-12T05:08:52.064Z,12.83
2018-10-12T05:11:21.488Z,13.47
2018-10-12T05:13:50.834Z,12.63
2018-10-12T05:16:20.232Z,12.90
2018-10-12T05:18:49.541Z,13.87
2018-10-12T05:21:18.941Z,13.80
2018-10-12T05:23:48.304Z,13.50
2018-10-12T05:26:17.721Z,12.87
2018-10-12T05:28:47.098Z,13.33
2018-10-12T05:31:16.507Z,13.33
2018-10-12T05:33:45.832Z,12.40
2018-10-12T05:36:15.288Z,13.33
2018-10-12T05:38:44.597Z,13.60
2018-10-12T05:41:14.038Z,13.03
2018-10-12T05:43:43.434Z,13.03
2018-10-12T05:46:12.856Z,14.60
2018-10-12T05:48:53.470Z,14.57
2018-10-12T05:51:22.792Z,14.33
2018-10-12T05:53:52.213Z,12.77
2018-10-12T05:56:25.010Z,13.40
2018-10-12T05:58:54.408Z,13.03
2018-10-12T06:01:23.867Z,14.45
2018-10-12T06:03:53.545Z,13.50
2018-10-12T06:06:22.889Z,13.33
2018-10-12T06:08:52.260Z,14.63
2018-10-12T06:11:21.722Z,14.00
2018-10-12T06:13:51.048Z,13.37
2018-10-12T06:16:22.677Z,14.77
2018-10-12T06:18:52.186Z,13.87
2018-10-12T06:21:21.596Z,14.27
2018-10-12T06:23:50.955Z,14.37
2018-10-12T06:26:20.408Z,12.77
2018-10-12T06:28:49.807Z,13.63
2018-10-12T06:31:19.258Z,14.50
2018-10-12T06:33:48.641Z,13.53
2018-10-12T06:36:18.060Z,13.77
2018-10-12T06:38:47.404Z,13.47
2018-10-12T06:41:16.961Z,13.00
2018-10-12T06:43:46.302Z,13.90
2018-10-12T06:46:15.852Z,14.90
2018-10-12T06:48:45.428Z,14.73
2018-10-12T06:51:15.027Z,14.40
2018-10-12T06:53:44.423Z,13.63
2018-10-12T06:56:13.923Z,14.30
2018-10-12T06:58:43.370Z,13.37
2018-10-12T07:01:13.039Z,13.17
2018-10-12T07:03:42.956Z,14.00
2018-10-12T07:06:12.499Z,13.53
2018-10-12T07:08:42.023Z,12.87
2018-10-12T07:11:12.046Z,13.20
2018-10-12T07:13:41.518Z,13.50
2018-10-12T07:16:11.791Z,13.90
2018-10-12T07:18:42.373Z,13.53
2018-10-12T07:21:11.851Z,13.90
2018-10-12T07:23:41.315Z,13.87
2018-10-12T07:26:10.801Z,12.33
2018-10-12T07:28:40.351Z,13.20
2018-10-12T07:31:09.698Z,12.63
2018-10-12T07:33:40.294Z,13.90
2018-10-12T07:36:09.667Z,13.20
2018-10-12T07:38:39.185Z,13.40
2018-10-12T07:41:08.930Z,13.37
2018-10-12T07:43:38.432Z,14.23
2018-10-12T07:46:07.970Z,14.00
2018-10-12T07:48:37.767Z,13.77
2018-10-12T07:51:07.391Z,13.70
2018-10-12T07:53:36.871Z,13.77
2018-10-12T07:56:07.248Z,15.47
2018-10-12T07:58:36.607Z,14.53
2018-10-12T08:01:05.975Z,14.77
2018-10-12T08:03:35.381Z,14.20
2018-10-12T08:06:05.540Z,14.93
2018-10-12T08:08:34.882Z,14.90
2018-10-12T08:11:04.377Z,14.63
2018-10-12T08:13:33.726Z,13.90
2018-10-12T08:16:03.119Z,14.43
2018-10-12T08:18:32.538Z,14.20
2018-10-12T08:21:02.818Z,13.83
2018-10-12T08:23:32.218Z,14.23
2018-10-12T08:26:01.595Z,14.33
2018-10-12T08:28:30.978Z,13.83
2018-10-12T08:31:00.331Z,14.50
2018-10-12T08:33:29.768Z,14.07
2018-10-12T08:35:59.260Z,13.90
2018-10-12T08:38:28.894Z,14.20
2018-10-12T08:40:58.277Z,14.57
2018-10-12T08:43:28.295Z,14.30
2018-10-12T08:45:57.635Z,13.83
2018-10-12T08:48:27.518Z,13.87
2018-10-12T08:50:56.883Z,14.57
2018-10-12T08:53:27.886Z,14.10
2018-10-12T08:55:57.245Z,12.93
2018-10-12T08:58:27.191Z,13.17
2018-10-12T09:00:56.578Z,13.03
2018-10-12T09:03:26.127Z,13.90
2018-10-12T09:05:55.508Z,12.87
2018-10-12T09:08:24.964Z,13.73
2018-10-12T09:10:54.292Z,14.03
2018-10-12T09:13:23.614Z,13.97
2018-10-12T09:15:52.970Z,13.77
2018-10-12T09:18:22.322Z,13.37
2018-10-12T09:20:51.712Z,14.50
2018-10-12T09:23:20.998Z,14.17
2018-10-12T09:25:50.324Z,13.93
2018-10-12T09:28:19.821Z,13.03
2018-10-12T09:30:49.198Z,14.37
2018-10-12T09:33:18.645Z,13.17
2018-10-12T09:35:48.208Z,13.60
2018-10-12T09:38:17.600Z,13.00
2018-10-12T09:40:47.050Z,13.13
2018-10-12T09:43:16.399Z,13.00
2018-10-12T09:45:45.731Z,12.27
2018-10-12T09:48:15.042Z,11.27
2018-10-12T09:50:44.373Z,12.67
2018-10-12T09:53:13.723Z,12.03
2018-10-12T09:55:43.135Z,11.67
2018-10-12T09:58:12.524Z,11.50
2018-10-12T10:00:47.642Z,11.57
2018-10-12T10:03:22.176Z,11.67
2018-10-12T10:05:51.516Z,11.67
2018-10-12T10:08:20.967Z,11.00
2018-10-12T10:10:50.285Z,11.67
2018-10-12T10:13:19.601Z,12.30
2018-10-12T10:15:49.372Z,11.90
2018-10-12T10:18:19.512Z,11.63
2018-10-12T10:20:49.193Z,11.70
2018-10-12T10:23:18.773Z,10.47
2018-10-12T10:25:49.039Z,10.90
2018-10-12T10:28:18.433Z,10.70
2018-10-12T10:30:47.782Z,11.10
2018-10-12T10:33:17.122Z,10.33
2018-10-12T10:35:46.506Z,10.20
2018-10-12T10:38:15.937Z,9.73
2018-10-12T10:40:45.332Z,10.43
2018-10-12T10:43:14.678Z,9.60
2018-10-12T10:45:44.043Z,10.50
2018-10-12T10:48:13.437Z,10.00
2018-10-12T10:50:42.828Z,10.97
2018-10-12T10:53:12.218Z,9.50
2018-10-12T10:55:41.521Z,10.03
2018-10-12T10:58:11.124Z,10.23
2018-10-12T11:00:42.430Z,10.37
2018-10-12T11:03:12.157Z,9.47
2018-10-12T11:05:41.918Z,10.40
2018-10-12T11:08:11.658Z,10.13
2018-10-12T11:10:41.404Z,10.00
2018-10-12T11:13:11.130Z,10.03
2018-10-12T11:15:41.954Z,10.33
2018-10-12T11:18:11.706Z,10.27
2018-10-12T11:20:41.374Z,9.80
2018-10-12T11:23:11.156Z,10.07
2018-10-12T11:25:40.867Z,8.87
2018-10-12T11:28:10.644Z,9.37
2018-10-12T11:30:41.657Z,9.63
2018-10-12T11:33:11.388Z,10.87
2018-10-12T11:35:41.234Z,10.10
2018-10-12T11:38:10.957Z,9.57
2018-10-12T11:40:40.689Z,10.67
2018-10-12T11:43:24.849Z,9.83
2018-10-12T11:45:55.382Z,9.30
2018-10-12T11:48:25.189Z,10.70
2018-10-12T11:50:54.893Z,10.17
2018-10-12T11:53:24.543Z,10.20
2018-10-12T11:55:54.260Z,10.53
2018-10-12T11:58:24.852Z,10.73
2018-10-12T12:00:54.785Z,10.33
2018-10-12T12:03:24.623Z,10.63
2018-10-12T12:05:54.326Z,10.73
2018-10-12T12:08:24.183Z,11.03
2018-10-12T12:10:53.926Z,10.93
2018-10-12T12:13:24.157Z,10.10
2018-10-12T12:15:54.091Z,9.90
2018-10-12T12:18:23.918Z,10.07
2018-10-12T12:20:53.768Z,10.00
2018-10-12T12:23:24.929Z,10.73
2018-10-12T12:25:54.832Z,10.63
2018-10-12T12:28:24.495Z,10.00
2018-10-12T12:30:54.160Z,10.97
2018-10-12T12:33:23.829Z,11.27
2018-10-12T12:35:53.701Z,11.50
2018-10-12T12:38:23.228Z,11.23
2018-10-12T12:40:59.362Z,11.00
2018-10-12T12:43:29.047Z,10.33
2018-10-12T12:45:58.633Z,11.23
2018-10-12T12:48:29.592Z,9.90
2018-10-12T12:50:58.950Z,11.83
2018-10-12T12:53:28.637Z,10.10
2018-10-12T12:55:58.307Z,10.00
2018-10-12T12:58:27.925Z,9.93
2018-10-12T13:00:57.588Z,9.83
2018-10-12T13:03:27.200Z,9.53
2018-10-12T13:05:56.866Z,9.40
2018-10-12T13:08:26.471Z,11.50
2018-10-12T13:10:56.107Z,11.60
2018-10-12T13:13:25.747Z,10.73
2018-10-12T13:15:55.453Z,12.23
2018-10-12T13:18:25.170Z,9.93
2018-10-12T13:20:54.815Z,9.60
2018-10-12T13:23:24.448Z,10.33
2018-10-12T13:25:54.107Z,9.67
2018-10-12T13:28:23.754Z,9.80
2018-10-12T13:30:53.417Z,9.80
2018-10-12T13:33:23.087Z,9.30
2018-10-12T13:35:53.180Z,9.13
2018-10-12T13:38:22.885Z,9.50
2018-10-12T13:40:52.614Z,9.63
2018-10-12T13:43:22.273Z,9.63
2018-10-12T13:45:51.989Z,9.70
2018-10-12T13:48:21.676Z,10.90
2018-10-12T13:50:51.449Z,10.47
2018-10-12T13:53:21.652Z,11.00
2018-10-12T13:55:51.370Z,10.40
2018-10-12T13:58:21.039Z,9.73
2018-10-12T14:00:50.725Z,9.90
2018-10-12T14:03:20.507Z,9.47
2018-10-12T14:05:50.255Z,9.27
2018-10-12T14:08:19.927Z,9.83
2018-10-12T14:10:49.639Z,10.13
2018-10-12T14:13:19.381Z,10.23
2018-10-12T14:15:48.990Z,8.80
2018-10-12T14:18:18.698Z,8.23
2018-10-12T14:20:48.378Z,8.40
2018-10-12T14:23:18.027Z,8.63
2018-10-12T14:25:47.826Z,8.10
2018-10-12T14:28:17.501Z,9.03
2018-10-12T14:30:47.507Z,8.47
2018-10-12T14:33:17.171Z,8.83
2018-10-12T14:35:47.444Z,9.07
2018-10-12T14:38:17.096Z,8.27
2018-10-12T14:40:47.606Z,9.03
2018-10-12T14:43:17.306Z,8.23
2018-10-12T14:45:47.617Z,8.03
2018-10-12T14:48:17.266Z,8.27
2018-10-12T14:50:48.030Z,8.20
2018-10-12T14:53:18.177Z,8.37
2018-10-12T14:55:48.694Z,8.80
2018-10-12T14:58:18.387Z,8.23
2018-10-12T15:00:48.472Z,8.27
2018-10-12T15:03:18.489Z,7.13
2018-10-12T15:05:48.856Z,8.03
2018-10-12T15:08:18.519Z,8.47
2018-10-12T15:10:49.197Z,9.07
2018-10-12T15:13:18.908Z,8.90
2018-10-12T15:15:49.412Z,8.80
2018-10-12T15:18:19.237Z,8.50
2018-10-12T15:20:49.626Z,8.83
2018-10-12T15:23:19.242Z,8.80
2018-10-12T15:25:49.759Z,8.97
2018-10-12T15:28:19.496Z,8.93
2018-10-12T15:30:50.514Z,9.30
2018-10-12T15:33:20.794Z,8.97
2018-10-12T15:35:52.541Z,8.83
2018-10-12T15:41:11.020Z,8.97
2018-10-12T15:43:41.094Z,8.60
2018-10-12T15:46:10.750Z,8.80
2018-10-12T15:48:42.003Z,9.13
2018-10-12T15:51:11.703Z,9.90
2018-10-12T15:53:41.958Z,8.77
2018-10-12T15:56:11.695Z,8.90
2018-10-12T15:58:41.635Z,8.40
2018-10-12T16:01:11.391Z,9.10
2018-10-12T16:03:43.357Z,9.50
2018-10-12T16:06:13.210Z,9.43
2018-10-12T16:08:43.000Z,9.53
2018-10-12T16:11:12.943Z,9.17
2018-10-12T16:13:42.834Z,10.03
2018-10-12T16:16:12.439Z,9.17
2018-10-12T16:18:43.052Z,9.33
2018-10-12T16:21:12.776Z,9.10
2018-10-12T16:23:42.532Z,9.37
2018-10-12T16:26:20.972Z,9.57
2018-10-12T16:28:51.511Z,10.23
2018-10-12T16:31:21.275Z,10.67
2018-10-12T16:33:52.216Z,10.57
2018-10-12T16:36:22.141Z,10.23
2018-10-12T16:38:52.749Z,10.13
2018-10-12T16:41:23.480Z,9.33
2018-10-12T16:43:54.935Z,10.13
2018-10-12T16:46:24.783Z,10.53
2018-10-12T16:48:54.769Z,12.20
2018-10-12T16:51:24.890Z,12.27
2018-10-12T16:53:55.587Z,14.07
2018-10-12T16:56:25.588Z,74.30
2018-10-12T16:58:55.461Z,96.13
2018-10-12T17:01:25.439Z,117.03
2018-10-12T17:03:55.351Z,36.03
2018-10-12T17:06:25.142Z,42.37
2018-10-12T17:09:11.372Z,45.77
2018-10-12T17:11:41.439Z,114.30
2018-10-12T17:14:11.119Z,247.50
2018-10-12T17:16:41.073Z,89.13
2018-10-12T17:19:11.000Z,40.13
2018-10-12T17:21:41.758Z,34.67
2018-10-12T17:24:11.505Z,94.97
2018-10-12T17:26:41.299Z,206.57
2018-10-12T17:29:10.972Z,198.47
2018-10-12T17:31:40.910Z,118.97
2018-10-12T17:34:10.572Z,179.97
2018-10-12T17:36:41.463Z,129.10
2018-10-12T17:39:13.069Z,98.47
2018-10-12T17:41:42.741Z,78.37
2018-10-12T17:44:12.433Z,58.77
2018-10-12T17:46:42.135Z,71.23
2018-10-12T17:49:11.899Z,64.93
2018-10-12T17:51:43.069Z,34.33
2018-10-12T17:54:12.752Z,42.17
2018-10-12T17:56:42.451Z,24.67
2018-10-12T17:59:12.259Z,17.97
2018-10-12T18:01:42.154Z,22.33
2018-10-12T18:04:11.831Z,24.13
2018-10-12T18:06:43.003Z,21.97
2018-10-12T18:09:12.696Z,26.67
2018-10-12T18:11:45.291Z,28.77
2018-10-12T18:14:15.079Z,28.90
2018-10-12T18:16:44.695Z,26.07
2018-10-12T18:19:14.387Z,18.87
2018-10-12T18:21:44.697Z,19.83
2018-10-12T18:24:14.490Z,14.70
2018-10-12T18:26:44.236Z,28.37
2018-10-12T18:29:13.970Z,28.27
2018-10-12T18:31:43.700Z,93.33
2018-10-12T18:34:13.526Z,61.57
2018-10-12T18:36:44.036Z,39.00
2018-10-12T18:39:13.882Z,35.47
2018-10-12T18:41:43.623Z,27.93
2018-10-12T18:44:13.464Z,55.27
2018-10-12T18:46:43.143Z,54.87
2018-10-12T18:49:12.884Z,51.87
2018-10-12T18:51:43.215Z,31.33
2018-10-12T18:54:12.932Z,22.70
2018-10-12T18:56:42.721Z,18.13
2018-10-12T18:59:12.412Z,16.13
2018-10-12T19:01:42.584Z,16.33
2018-10-12T19:04:12.317Z,19.63
2018-10-12T19:06:43.565Z,17.23
2018-10-12T19:09:13.706Z,17.20
2018-10-12T19:11:46.258Z,16.00
2018-10-12T19:14:18.150Z,20.13
2018-10-12T19:16:50.269Z,71.40
2018-10-12T19:19:20.027Z,38.23
2018-10-12T19:21:49.772Z,25.40
2018-10-12T19:24:19.566Z,18.63
2018-10-12T19:26:49.411Z,16.10
2018-10-12T19:29:19.180Z,15.33
2018-10-12T19:31:49.626Z,15.70
2018-10-12T19:34:19.487Z,14.77
2018-10-12T19:36:49.229Z,16.10
2018-10-12T19:39:18.903Z,15.60
2018-10-12T19:41:48.701Z,16.47
2018-10-12T19:44:20.939Z,16.03
2018-10-12T19:46:50.824Z,16.07
2018-10-12T19:49:20.604Z,16.37
2018-10-12T19:51:50.475Z,18.33
2018-10-12T19:54:20.288Z,18.03
2018-10-12T19:56:50.034Z,18.37
2018-10-12T19:59:19.978Z,18.13
2018-10-12T20:01:49.729Z,17.50
2018-10-12T20:04:19.606Z,18.93
2018-10-12T20:06:49.407Z,18.40
2018-10-12T20:09:19.215Z,19.03
2018-10-12T20:11:49.822Z,20.03
2018-10-12T20:14:19.557Z,18.03
2018-10-12T20:16:49.827Z,18.87
2018-10-12T20:19:19.541Z,19.17
2018-10-12T20:21:49.326Z,19.73
2018-10-12T20:24:19.270Z,19.07
2018-10-12T20:26:49.488Z,19.60
2018-10-12T20:29:19.228Z,19.80
2018-10-12T20:31:48.876Z,18.50
2018-10-12T20:34:18.534Z,18.80
2018-10-12T20:36:48.309Z,19.27
2018-10-12T20:39:18.025Z,21.33
2018-10-12T20:41:47.657Z,28.43
2018-10-12T20:44:17.346Z,28.93
2018-10-12T20:46:46.983Z,33.53
2018-10-12T20:49:16.682Z,29.00
2018-10-12T20:51:46.323Z,29.40
2018-10-12T20:54:15.949Z,24.73
2018-10-12T20:56:45.824Z,21.87
2018-10-12T20:59:15.643Z,20.63
2018-10-12T21:01:45.877Z,20.17
2018-10-12T21:04:15.745Z,19.43
2018-10-12T21:06:45.567Z,20.13
2018-10-12T21:09:15.417Z,18.53
2018-10-12T21:11:45.245Z,19.97
2018-10-12T21:14:15.155Z,19.70
2018-10-12T21:16:44.924Z,19.93
2018-10-12T21:19:14.697Z,21.33
2018-10-12T21:21:44.723Z,21.33
2018-10-12T21:24:14.527Z,20.90
2018-10-12T21:26:44.261Z,20.17
2018-10-12T21:29:14.009Z,19.57
2018-10-12T21:31:43.780Z,20.63
2018-10-12T21:34:14.035Z,20.47
2018-10-12T21:36:44.364Z,18.90
2018-10-12T21:39:15.225Z,20.47
2018-10-12T21:41:45.051Z,20.07
2018-10-12T21:44:15.116Z,20.20
2018-10-12T21:46:45.111Z,19.67
2018-10-12T21:49:15.328Z,20.00
2018-10-12T21:51:45.199Z,21.20
2018-10-12T21:54:15.517Z,20.07
2018-10-12T21:56:45.319Z,20.73
2018-10-12T21:59:15.713Z,20.40
2018-10-12T22:01:45.537Z,21.57
2018-10-12T22:04:15.919Z,21.13
2018-10-12T22:06:45.584Z,21.70
2018-10-12T22:09:15.793Z,20.23
2018-10-12T22:11:45.874Z,20.97
2018-10-12T22:14:16.250Z,22.47
2018-10-12T22:16:46.089Z,21.23
2018-10-12T22:19:16.310Z,21.63
2018-10-12T22:21:46.161Z,21.43
2018-10-12T22:24:16.399Z,21.67
2018-10-12T22:26:46.164Z,21.43
2018-10-12T22:29:16.433Z,22.37
2018-10-12T22:31:46.258Z,22.00
2018-10-12T22:34:16.858Z,21.17
2018-10-12T22:36:46.646Z,22.13
2018-10-12T22:39:17.133Z,22.43
2018-10-12T22:41:47.001Z,23.53
2018-10-12T22:44:17.257Z,23.40
2018-10-12T22:46:47.135Z,22.57
2018-10-12T22:49:17.550Z,22.37
2018-10-12T22:51:47.269Z,22.03
2018-10-12T22:54:17.842Z,22.27
2018-10-12T22:56:47.680Z,22.80
2018-10-12T22:59:17.979Z,22.87
2018-10-12T23:01:47.685Z,22.33
2018-10-12T23:04:17.991Z,21.57
2018-10-12T23:06:47.775Z,21.50
2018-10-12T23:09:17.860Z,22.07
2018-10-12T23:11:47.975Z,21.63
2018-10-12T23:14:18.145Z,22.27
2018-10-12T23:16:47.880Z,22.17
2018-10-12T23:19:18.166Z,22.63
2018-10-12T23:21:47.928Z,21.50
2018-10-12T23:24:18.053Z,22.87
2018-10-12T23:26:47.804Z,22.97
2018-10-12T23:29:17.861Z,23.13
2018-10-12T23:31:47.757Z,22.17
2018-10-12T23:34:18.191Z,22.20
2018-10-12T23:36:48.044Z,23.00
2018-10-12T23:42:00.220Z,22.90
2018-10-12T23:44:29.889Z,22.80
2018-10-12T23:46:59.702Z,22.20
2018-10-12T23:49:29.488Z,21.90
2018-10-12T23:51:59.220Z,22.87
2018-10-12T23:54:28.878Z,23.53
2018-10-12T23:56:58.573Z,22.60
2018-10-12T23:59:28.321Z,22.90
